Hlavní strana
METAR-TAF:

METAR-TAF

Letiště :

Curaçao, Nizozemské Antily

zeměpisná šířka: 12-12N, zeměpisná délka: 068-58W, výška: 9 m

Aktuální stav počasí

Zpráva byla vytvořena před 18 minutami, v 21:00 UTC
Východojihovýchodní vítr 14 kt
Teplota 28°C
Vlhkost vzduchu 70%
Tlak 1014 hPa
Viditelnost 10 km a více

METAR: TNCC 112100Z AUTO 12014KT 9999 NSC 28/22 Q1014

Čas: 17:18 (21:18 UTC)

Předpověď počasí

Zpráva byla vytvořena před 5 hodinami a 48 minutami, v 15:30 UTC
Předpověď platná od 11 v 18 UTC do 12 v 18 UTC
Východojihovýchodní vítr 15 kt
Viditelnost 10 km a více
Skoro jasno ve výšce 2200 ft

TAF: TNCC 111530Z 1118/1218 11015KT 9999 FEW022

Stav a předpovědi počasí z více než 4 000 letišť (zprávy METAR a TAF).

Červené a žluté tečky na mapě představují dostupné meteorologické stanice.

Když kurzor umístíte na tečku, zobrazí se název stanice.

Pak kliknutím zobrazíte stav a předpověď počasí.

Chcete-li změnit mapu, kliknutím na zelené tlačítko se znaménkem +mapu přiblížíte, kliknutím na zelené tlačítko se znaménkem – mapu oddálíte a kliknutím na zelené šipky přejdete na sousední mapy.


METAR-TAF: